createdAt,value
2018-09-22T00:00:54.854Z,1000.65
2018-09-22T00:01:54.869Z,1000.71
2018-09-22T00:02:54.891Z,1000.66
2018-09-22T00:03:54.914Z,1000.77
2018-09-22T00:04:54.924Z,1000.87
2018-09-22T00:05:54.947Z,1000.82
2018-09-22T00:06:54.966Z,1000.80
2018-09-22T00:07:55.010Z,1000.85
2018-09-22T00:08:55.000Z,1000.90
2018-09-22T00:09:55.022Z,1000.93
2018-09-22T00:10:55.032Z,1000.84
2018-09-22T00:11:55.051Z,1000.87
2018-09-22T00:12:55.064Z,1000.90
2018-09-22T00:13:55.084Z,1000.91
2018-09-22T00:14:55.104Z,1000.94
2018-09-22T00:15:55.130Z,1000.93
2018-09-22T00:16:55.157Z,1000.92
2018-09-22T00:17:55.157Z,1000.92
2018-09-22T00:18:55.170Z,1000.93
2018-09-22T00:19:55.188Z,1000.92
2018-09-22T00:20:55.207Z,1000.89
2018-09-22T00:21:55.264Z,1000.91
2018-09-22T00:22:55.246Z,1000.95
2018-09-22T00:23:55.260Z,1001.00
2018-09-22T00:24:55.276Z,1000.99
2018-09-22T00:25:55.294Z,1000.92
2018-09-22T00:26:55.310Z,1000.97
2018-09-22T00:27:55.330Z,1000.97
2018-09-22T00:28:55.354Z,1000.95
2018-09-22T00:29:55.363Z,1001.01
2018-09-22T00:30:55.384Z,1000.96
2018-09-22T00:31:55.400Z,1001.01
2018-09-22T00:32:55.421Z,1000.93
2018-09-22T00:33:55.436Z,1000.97
2018-09-22T00:34:55.455Z,1001.01
2018-09-22T00:35:55.475Z,1001.01
2018-09-22T00:36:55.492Z,1001.04
2018-09-22T00:37:55.506Z,1000.98
2018-09-22T00:38:55.524Z,1001.06
2018-09-22T00:39:55.544Z,1001.07
2018-09-22T00:40:55.559Z,1001.04
2018-09-22T00:41:55.576Z,1001.05
2018-09-22T00:42:55.596Z,1001.05
2018-09-22T00:43:55.607Z,1001.09
2018-09-22T00:44:55.629Z,1001.04
2018-09-22T00:45:55.647Z,1001.06
2018-09-22T00:46:55.662Z,1001.06
2018-09-22T00:47:55.680Z,1001.07
2018-09-22T00:48:55.698Z,1001.04
2018-09-22T00:49:55.715Z,1001.03
2018-09-22T00:50:55.734Z,1001.02
2018-09-22T00:51:55.755Z,1001.12
2018-09-22T00:52:55.769Z,1001.02
2018-09-22T00:53:55.798Z,1001.08
2018-09-22T00:54:55.812Z,1001.03
2018-09-22T00:55:55.821Z,1001.01
2018-09-22T00:56:55.839Z,1001.04
2018-09-22T00:57:55.862Z,1001.06
2018-09-22T00:58:55.890Z,1001.06
2018-09-22T00:59:55.892Z,1001.05
2018-09-22T01:00:55.930Z,1001.05
2018-09-22T01:01:55.925Z,1001.04
2018-09-22T01:02:55.947Z,1001.05
2018-09-22T01:03:55.978Z,1001.14
2018-09-22T01:04:55.986Z,1001.10
2018-09-22T01:05:55.999Z,1001.08
2018-09-22T01:06:56.024Z,1001.07
2018-09-22T01:07:56.034Z,1001.13
2018-09-22T01:08:56.051Z,1001.06
2018-09-22T01:09:56.084Z,1001.06
2018-09-22T01:10:56.097Z,1001.10
2018-09-22T01:11:56.109Z,1001.18
2018-09-22T01:12:56.129Z,1001.15
2018-09-22T01:13:56.140Z,1001.17
2018-09-22T01:14:56.157Z,1001.15
2018-09-22T01:15:56.207Z,1001.25
2018-09-22T01:16:56.193Z,1001.15
2018-09-22T01:17:56.209Z,1001.21
2018-09-22T01:18:56.228Z,1001.17
2018-09-22T01:19:56.249Z,1001.21
2018-09-22T01:20:56.265Z,1001.24
2018-09-22T01:21:56.280Z,1001.25
2018-09-22T01:22:56.304Z,1001.26
2018-09-22T01:23:56.314Z,1001.26
2018-09-22T01:24:56.337Z,1001.33
2018-09-22T01:25:56.355Z,1001.32
2018-09-22T01:26:56.368Z,1001.37
2018-09-22T01:27:56.392Z,1001.33
2018-09-22T01:28:56.404Z,1001.37
2018-09-22T01:29:56.424Z,1001.28
2018-09-22T01:30:56.443Z,1001.32
2018-09-22T01:31:56.461Z,1001.35
2018-09-22T01:32:56.473Z,1001.43
2018-09-22T01:33:56.490Z,1001.44
2018-09-22T01:34:56.509Z,1001.51
2018-09-22T01:35:56.528Z,1001.50
2018-09-22T01:36:56.545Z,1001.44
2018-09-22T01:37:56.562Z,1001.47
2018-09-22T01:38:56.583Z,1001.36
2018-09-22T01:39:56.602Z,1001.45
2018-09-22T01:40:56.627Z,1001.42
2018-09-22T01:41:56.633Z,1001.42
2018-09-22T01:42:56.660Z,1001.41
2018-09-22T01:43:56.668Z,1001.46
2018-09-22T01:44:56.687Z,1001.40
2018-09-22T01:45:56.705Z,1001.43
2018-09-22T01:46:56.722Z,1001.54
2018-09-22T01:47:56.740Z,1001.50
2018-09-22T01:48:56.760Z,1001.45
2018-09-22T01:49:56.795Z,1001.45
2018-09-22T01:50:56.789Z,1001.49
2018-09-22T01:51:56.813Z,1001.46
2018-09-22T01:52:56.832Z,1001.44
2018-09-22T01:53:56.843Z,1001.56
2018-09-22T01:54:56.870Z,1001.58
2018-09-22T01:55:56.884Z,1001.45
2018-09-22T01:56:56.905Z,1001.58
2018-09-22T01:57:56.925Z,1001.54
2018-09-22T01:58:56.932Z,1001.56
2018-09-22T01:59:56.954Z,1001.53
2018-09-22T02:00:56.969Z,1001.56
2018-09-22T02:01:56.987Z,1001.60
2018-09-22T02:02:57.013Z,1001.62
2018-09-22T02:03:57.028Z,1001.69
2018-09-22T02:04:57.035Z,1001.62
2018-09-22T02:05:57.062Z,1001.63
2018-09-22T02:06:57.090Z,1001.69
2018-09-22T02:07:57.087Z,1001.63
2018-09-22T02:08:57.105Z,1001.65
2018-09-22T02:09:57.128Z,1001.71
2018-09-22T02:10:57.141Z,1001.60
2018-09-22T02:11:57.156Z,1001.65
2018-09-22T02:12:57.177Z,1001.57
2018-09-22T02:13:57.193Z,1001.64
2018-09-22T02:14:57.218Z,1001.60
2018-09-22T02:15:57.230Z,1001.60
2018-09-22T02:16:57.246Z,1001.68
2018-09-22T02:17:57.263Z,1001.62
2018-09-22T02:18:57.282Z,1001.74
2018-09-22T02:19:57.305Z,1001.77
2018-09-22T02:20:57.321Z,1001.72
2018-09-22T02:21:57.336Z,1001.74
2018-09-22T02:22:57.352Z,1001.75
2018-09-22T02:23:57.371Z,1001.76
2018-09-22T02:24:57.382Z,1001.77
2018-09-22T02:25:57.406Z,1001.77
2018-09-22T02:26:57.415Z,1001.78
2018-09-22T02:27:57.436Z,1001.77
2018-09-22T02:28:57.449Z,1001.74
2018-09-22T02:29:57.471Z,1001.75
2018-09-22T02:30:57.488Z,1001.68
2018-09-22T02:31:57.505Z,1001.81
2018-09-22T02:32:57.524Z,1001.74
2018-09-22T02:33:57.545Z,1001.77
2018-09-22T02:34:57.562Z,1001.83
2018-09-22T02:35:57.585Z,1001.77
2018-09-22T02:36:57.589Z,1001.74
2018-09-22T02:37:57.612Z,1001.82
2018-09-22T02:38:57.628Z,1001.83
2018-09-22T02:39:57.642Z,1001.77
2018-09-22T02:40:57.665Z,1001.87
2018-09-22T02:41:57.686Z,1001.90
2018-09-22T02:42:57.700Z,1001.84
2018-09-22T02:43:57.714Z,1001.90
2018-09-22T02:44:57.733Z,1001.94
2018-09-22T02:45:57.744Z,1002.06
2018-09-22T02:46:57.763Z,1001.99
2018-09-22T02:47:57.784Z,1002.01
2018-09-22T02:48:57.810Z,1001.99
2018-09-22T02:49:57.819Z,1002.04
2018-09-22T02:50:57.833Z,1001.96
2018-09-22T02:51:57.848Z,1001.99
2018-09-22T02:52:57.868Z,1002.04
2018-09-22T02:53:57.885Z,1002.05
2018-09-22T02:54:57.907Z,1002.00
2018-09-22T02:55:57.920Z,1002.12
2018-09-22T02:56:57.938Z,1002.02
2018-09-22T02:57:57.956Z,1002.00
2018-09-22T02:58:57.976Z,1002.05
2018-09-22T02:59:57.987Z,1002.05
2018-09-22T03:00:58.006Z,1002.02
2018-09-22T03:01:58.024Z,1002.06
2018-09-22T03:02:58.042Z,1002.08
2018-09-22T03:03:58.081Z,1002.10
2018-09-22T03:04:58.080Z,1002.09
2018-09-22T03:05:58.096Z,1002.12
2018-09-22T03:06:58.113Z,1002.11
2018-09-22T03:07:58.125Z,1002.08
2018-09-22T03:08:58.153Z,1002.11
2018-09-22T03:09:58.163Z,1002.14
2018-09-22T03:10:58.176Z,1002.11
2018-09-22T03:11:58.198Z,1002.22
2018-09-22T03:12:58.219Z,1002.26
2018-09-22T03:13:58.230Z,1002.22
2018-09-22T03:14:58.245Z,1002.24
2018-09-22T03:15:58.266Z,1002.20
2018-09-22T03:16:58.282Z,1002.25
2018-09-22T03:17:58.296Z,1002.30
2018-09-22T03:18:58.315Z,1002.28
2018-09-22T03:19:58.330Z,1002.29
2018-09-22T03:20:58.354Z,1002.28
2018-09-22T03:21:58.375Z,1002.31
2018-09-22T03:22:58.387Z,1002.37
2018-09-22T03:23:58.399Z,1002.37
2018-09-22T03:24:58.416Z,1002.33
2018-09-22T03:25:58.438Z,1002.38
2018-09-22T03:26:58.448Z,1002.44
2018-09-22T03:27:58.470Z,1002.38
2018-09-22T03:28:58.495Z,1002.45
2018-09-22T03:29:58.505Z,1002.43
2018-09-22T03:30:58.523Z,1002.53
2018-09-22T03:31:58.538Z,1002.51
2018-09-22T03:32:58.613Z,1002.53
2018-09-22T03:33:58.583Z,1002.62
2018-09-22T03:34:58.590Z,1002.58
2018-09-22T03:35:58.606Z,1002.50
2018-09-22T03:36:58.624Z,1002.51
2018-09-22T03:37:58.642Z,1002.63
2018-09-22T03:38:58.659Z,1002.57
2018-09-22T03:39:58.688Z,1002.62
2018-09-22T03:40:58.699Z,1002.66
2018-09-22T03:41:58.712Z,1002.63
2018-09-22T03:42:58.725Z,1002.63
2018-09-22T03:43:58.743Z,1002.62
2018-09-22T03:44:58.768Z,1002.70
2018-09-22T03:45:58.791Z,1002.71
2018-09-22T03:46:58.803Z,1002.66
2018-09-22T03:47:58.812Z,1002.71
2018-09-22T03:48:58.843Z,1002.70
2018-09-22T03:49:58.847Z,1002.62
2018-09-22T03:50:58.875Z,1002.54
2018-09-22T03:51:58.883Z,1002.65
2018-09-22T03:52:58.901Z,1002.62
2018-09-22T03:53:58.911Z,1002.71
2018-09-22T03:54:58.930Z,1002.72
2018-09-22T03:55:58.948Z,1002.73
2018-09-22T03:56:58.970Z,1002.74
2018-09-22T03:57:58.992Z,1002.77
2018-09-22T03:58:58.998Z,1002.74
2018-09-22T03:59:59.028Z,1002.81
2018-09-22T04:00:59.041Z,1002.82
2018-09-22T04:01:59.068Z,1002.81
2018-09-22T04:02:59.074Z,1002.73
2018-09-22T04:03:59.093Z,1002.81
2018-09-22T04:04:59.110Z,1002.81
2018-09-22T04:05:59.125Z,1002.78
2018-09-22T04:06:59.143Z,1002.80
2018-09-22T04:07:59.160Z,1002.79
2018-09-22T04:08:59.172Z,1002.88
2018-09-22T04:09:59.191Z,1002.88
2018-09-22T04:10:59.208Z,1002.93
2018-09-22T04:11:59.236Z,1002.95
2018-09-22T04:12:59.243Z,1002.96
2018-09-22T04:13:59.257Z,1002.90
2018-09-22T04:14:59.272Z,1002.88
2018-09-22T04:15:59.319Z,1002.93
2018-09-22T04:16:59.306Z,1002.95
2018-09-22T04:17:59.330Z,1002.96
2018-09-22T04:18:59.347Z,1002.97
2018-09-22T04:19:59.364Z,1002.96
2018-09-22T04:20:59.376Z,1002.93
2018-09-22T04:21:59.394Z,1002.98
2018-09-22T04:22:59.411Z,1002.97
2018-09-22T04:23:59.429Z,1002.95
2018-09-22T04:24:59.446Z,1002.98
2018-09-22T04:25:59.469Z,1003.06
2018-09-22T04:26:59.476Z,1003.06
2018-09-22T04:27:59.504Z,1003.05
2018-09-22T04:28:59.519Z,1003.04
2018-09-22T04:29:59.537Z,1003.04
2018-09-22T04:30:59.563Z,1003.08
2018-09-22T04:31:59.568Z,1003.17
2018-09-22T04:32:59.590Z,1003.18
2018-09-22T04:33:59.603Z,1003.16
2018-09-22T04:34:59.623Z,1003.22
2018-09-22T04:35:59.639Z,1003.18
2018-09-22T04:36:59.655Z,1003.22
2018-09-22T04:37:59.674Z,1003.28
2018-09-22T04:38:59.721Z,1003.27
2018-09-22T04:39:59.713Z,1003.25
2018-09-22T04:40:59.721Z,1003.24
2018-09-22T04:41:59.743Z,1003.22
2018-09-22T04:42:59.764Z,1003.19
2018-09-22T04:43:59.775Z,1003.22
2018-09-22T04:44:59.805Z,1003.16
2018-09-22T04:45:59.813Z,1003.25
2018-09-22T04:46:59.836Z,1003.26
2018-09-22T04:47:59.847Z,1003.23
2018-09-22T04:48:59.866Z,1003.27
2018-09-22T04:49:59.883Z,1003.30
2018-09-22T04:50:59.899Z,1003.30
2018-09-22T04:51:59.914Z,1003.29
2018-09-22T04:52:59.931Z,1003.37
2018-09-22T04:53:59.953Z,1003.38
2018-09-22T04:54:59.967Z,1003.39
2018-09-22T04:55:59.979Z,1003.43
2018-09-22T04:57:00.004Z,1003.41
2018-09-22T04:58:00.037Z,1003.47
2018-09-22T04:59:00.036Z,1003.45
2018-09-22T05:00:00.058Z,1003.47
2018-09-22T05:01:00.070Z,1003.50
2018-09-22T05:02:00.086Z,1003.51
2018-09-22T05:03:00.101Z,1003.53
2018-09-22T05:04:00.123Z,1003.60
2018-09-22T05:05:00.133Z,1003.58
2018-09-22T05:06:00.154Z,1003.60
2018-09-22T05:07:00.173Z,1003.61
2018-09-22T05:08:00.191Z,1003.65
2018-09-22T05:09:00.210Z,1003.61
2018-09-22T05:10:00.222Z,1003.62
2018-09-22T05:11:00.237Z,1003.54
2018-09-22T05:12:00.262Z,1003.57
2018-09-22T05:13:00.276Z,1003.64
2018-09-22T05:14:00.290Z,1003.68
2018-09-22T05:15:00.309Z,1003.74
2018-09-22T05:16:00.326Z,1003.73
2018-09-22T05:17:00.374Z,1003.77
2018-09-22T05:18:00.360Z,1003.80
2018-09-22T05:19:00.382Z,1003.82
2018-09-22T05:20:00.396Z,1003.86
2018-09-22T05:21:00.415Z,1003.87
2018-09-22T05:22:00.435Z,1003.92
2018-09-22T05:23:00.444Z,1003.93
2018-09-22T05:24:00.464Z,1003.96
2018-09-22T05:25:00.491Z,1003.95
2018-09-22T05:26:00.499Z,1004.00
2018-09-22T05:27:00.526Z,1004.05
2018-09-22T05:28:00.534Z,1004.01
2018-09-22T05:29:00.551Z,1003.99
2018-09-22T05:30:00.570Z,1004.00
2018-09-22T05:31:00.594Z,1004.06
2018-09-22T05:32:00.609Z,1004.04
2018-09-22T05:33:00.624Z,1004.03
2018-09-22T05:34:00.641Z,1004.05
2018-09-22T05:35:00.665Z,1004.06
2018-09-22T05:36:00.680Z,1004.08
2018-09-22T05:37:00.702Z,1004.10
2018-09-22T05:38:00.716Z,1004.11
2018-09-22T05:39:00.730Z,1004.20
2018-09-22T05:40:00.748Z,1004.29
2018-09-22T05:41:00.767Z,1004.32
2018-09-22T05:42:00.783Z,1004.34
2018-09-22T05:43:00.797Z,1004.24
2018-09-22T05:44:00.816Z,1004.33
2018-09-22T05:45:00.838Z,1004.40
2018-09-22T05:46:00.853Z,1004.40
2018-09-22T05:47:00.873Z,1004.38
2018-09-22T05:48:00.886Z,1004.39
2018-09-22T05:49:00.917Z,1004.47
2018-09-22T05:50:00.930Z,1004.44
2018-09-22T05:51:00.951Z,1004.37
2018-09-22T05:52:00.964Z,1004.34
2018-09-22T05:53:00.976Z,1004.36
2018-09-22T05:54:01.005Z,1004.42
2018-09-22T05:55:01.018Z,1004.54
2018-09-22T05:56:01.040Z,1004.56
2018-09-22T05:57:01.075Z,1004.46
2018-09-22T05:58:01.090Z,1004.51
2018-09-22T05:59:01.093Z,1004.62
2018-09-22T06:00:01.134Z,1004.52
2018-09-22T06:01:01.130Z,1004.50
2018-09-22T06:02:01.144Z,1004.54
2018-09-22T06:03:01.158Z,1004.50
2018-09-22T06:04:01.288Z,1004.51
2018-09-22T06:05:01.213Z,1004.64
2018-09-22T06:06:01.211Z,1004.81
2018-09-22T06:07:01.241Z,1004.77
2018-09-22T06:08:01.263Z,1004.77
2018-09-22T06:09:01.264Z,1004.92
2018-09-22T06:10:01.284Z,1004.88
2018-09-22T06:11:01.314Z,1005.10
2018-09-22T06:12:01.359Z,1004.93
2018-09-22T06:13:01.339Z,1004.98
2018-09-22T06:14:01.369Z,1005.65
2018-09-22T06:15:01.382Z,1004.79
2018-09-22T06:16:01.394Z,1004.69
2018-09-22T06:17:01.412Z,1004.71
2018-09-22T06:18:01.441Z,1004.77
2018-09-22T06:19:01.456Z,1004.73
2018-09-22T06:20:01.472Z,1004.75
2018-09-22T06:21:01.490Z,1004.74
2018-09-22T06:22:01.511Z,1004.76
2018-09-22T06:23:01.579Z,1004.92
2018-09-22T06:24:01.541Z,1004.98
2018-09-22T06:25:01.567Z,1005.02
2018-09-22T06:26:01.587Z,1004.97
2018-09-22T06:27:01.620Z,1004.93
2018-09-22T06:28:01.618Z,1004.95
2018-09-22T06:29:01.637Z,1005.02
2018-09-22T06:30:01.655Z,1004.84
2018-09-22T06:31:01.672Z,1004.88
2018-09-22T06:32:01.690Z,1004.90
2018-09-22T06:33:01.723Z,1004.72
2018-09-22T06:34:01.741Z,1004.68
2018-09-22T06:35:01.759Z,1004.65
2018-09-22T06:36:01.765Z,1004.70
2018-09-22T06:37:01.792Z,1004.70
2018-09-22T06:38:01.821Z,1004.68
2018-09-22T06:39:01.834Z,1004.70
2018-09-22T06:40:01.846Z,1004.73
2018-09-22T06:41:01.873Z,1004.68
2018-09-22T06:42:01.884Z,1004.68
2018-09-22T06:43:01.902Z,1004.75
2018-09-22T06:44:01.962Z,1004.79
2018-09-22T06:45:01.938Z,1004.76
2018-09-22T06:46:01.974Z,1004.70
2018-09-22T06:47:01.978Z,1004.75
2018-09-22T06:48:01.993Z,1004.73
2018-09-22T06:49:02.010Z,1004.71
2018-09-22T06:50:02.035Z,1004.77
2018-09-22T06:51:02.056Z,1004.78
2018-09-22T06:52:02.065Z,1004.80
2018-09-22T06:53:02.081Z,1004.92
2018-09-22T06:54:02.101Z,1004.95
2018-09-22T06:55:02.129Z,1004.89
2018-09-22T06:56:02.144Z,1004.95
2018-09-22T06:57:02.167Z,1004.94
2018-09-22T06:58:02.177Z,1004.92
2018-09-22T06:59:02.195Z,1004.93
2018-09-22T07:00:02.212Z,1004.95
2018-09-22T07:01:02.234Z,1005.03
2018-09-22T07:02:02.260Z,1005.05
2018-09-22T07:03:02.275Z,1005.01
2018-09-22T07:04:02.292Z,1004.97
2018-09-22T07:05:02.325Z,1004.96
2018-09-22T07:06:02.339Z,1005.01
2018-09-22T07:07:02.346Z,1005.14
2018-09-22T07:08:02.364Z,1005.23
2018-09-22T07:09:02.382Z,1005.25
2018-09-22T07:10:02.397Z,1005.33
2018-09-22T07:11:02.422Z,1005.44
2018-09-22T07:12:02.448Z,1005.47
2018-09-22T07:13:02.456Z,1005.41
2018-09-22T07:14:02.477Z,1005.43
2018-09-22T07:15:02.499Z,1005.42
2018-09-22T07:16:02.524Z,1005.30
2018-09-22T07:17:02.528Z,1005.43
2018-09-22T07:18:02.550Z,1005.72
2018-09-22T07:19:02.563Z,1005.71
2018-09-22T07:20:02.587Z,1005.49
2018-09-22T07:21:02.611Z,1005.33
2018-09-22T07:22:02.628Z,1005.30
2018-09-22T07:23:02.640Z,1005.33
2018-09-22T07:24:02.665Z,1005.19
2018-09-22T07:25:02.680Z,1005.33
2018-09-22T07:26:02.698Z,1005.33
2018-09-22T07:27:02.717Z,1005.40
2018-09-22T07:28:02.736Z,1005.35
2018-09-22T07:29:02.764Z,1005.35
2018-09-22T07:30:02.778Z,1005.45
2018-09-22T07:31:02.796Z,1005.35
2018-09-22T07:32:02.822Z,1005.52
2018-09-22T07:33:02.844Z,1005.51
2018-09-22T07:34:02.855Z,1005.45
2018-09-22T07:35:02.875Z,1005.38
2018-09-22T07:36:02.901Z,1005.20
2018-09-22T07:37:02.911Z,1005.20
2018-09-22T07:38:02.929Z,1005.15
2018-09-22T07:39:02.951Z,1005.13
2018-09-22T07:40:02.971Z,1005.16
2018-09-22T07:41:02.988Z,1005.21
2018-09-22T07:42:03.011Z,1005.26
2018-09-22T07:43:03.031Z,1005.29
2018-09-22T07:44:03.047Z,1005.32
2018-09-22T07:45:03.067Z,1005.21
2018-09-22T07:46:03.087Z,1005.24
2018-09-22T07:47:03.115Z,1005.24
2018-09-22T07:48:03.127Z,1005.19
2018-09-22T07:49:03.141Z,1005.17
2018-09-22T07:50:03.161Z,1005.24
2018-09-22T07:51:03.190Z,1005.29
2018-09-22T07:52:03.221Z,1005.29
2018-09-22T07:53:03.228Z,1005.22
2018-09-22T07:54:03.246Z,1005.25
2018-09-22T07:55:03.271Z,1005.32
2018-09-22T07:56:03.296Z,1005.39
2018-09-22T07:57:03.319Z,1005.30
2018-09-22T07:58:03.325Z,1005.43
2018-09-22T07:59:03.338Z,1005.59
2018-09-22T08:00:03.356Z,1005.54
2018-09-22T08:01:03.384Z,1005.58
2018-09-22T08:02:03.397Z,1005.62
2018-09-22T08:03:03.417Z,1005.80
2018-09-22T08:04:03.440Z,1005.92
2018-09-22T08:05:03.459Z,1005.93
2018-09-22T08:06:03.480Z,1005.84
2018-09-22T08:07:03.500Z,1005.82
2018-09-22T08:08:03.514Z,1005.75
2018-09-22T08:09:03.530Z,1005.76
2018-09-22T08:10:03.554Z,1005.76
2018-09-22T08:11:03.576Z,1005.77
2018-09-22T08:12:03.591Z,1005.79
2018-09-22T08:13:03.617Z,1005.81
2018-09-22T08:14:03.633Z,1005.83
2018-09-22T08:15:03.654Z,1005.79
2018-09-22T08:16:03.672Z,1005.85
2018-09-22T08:17:03.695Z,1005.94
2018-09-22T08:18:03.711Z,1005.92
2018-09-22T08:19:03.729Z,1005.98
2018-09-22T08:20:03.751Z,1005.82
2018-09-22T08:21:03.779Z,1005.82
2018-09-22T08:22:03.793Z,1005.81
2018-09-22T08:23:03.814Z,1005.75
2018-09-22T08:24:03.828Z,1005.74
2018-09-22T08:25:03.852Z,1005.69
2018-09-22T08:26:03.881Z,1005.73
2018-09-22T08:27:03.892Z,1005.79
2018-09-22T08:28:03.916Z,1005.76
2018-09-22T08:29:03.934Z,1005.69
2018-09-22T08:30:03.948Z,1005.67
2018-09-22T08:31:03.965Z,1005.80
2018-09-22T08:32:03.986Z,1005.78
2018-09-22T08:33:04.008Z,1005.79
2018-09-22T08:34:04.031Z,1005.71
2018-09-22T08:35:04.048Z,1005.63
2018-09-22T08:36:04.124Z,1005.62
2018-09-22T08:37:04.478Z,1005.65
2018-09-22T08:38:04.119Z,1005.66
2018-09-22T08:39:04.136Z,1005.71
2018-09-22T08:40:04.153Z,1005.71
2018-09-22T08:41:04.171Z,1005.74
2018-09-22T08:42:04.194Z,1005.76
2018-09-22T08:43:04.207Z,1005.76
2018-09-22T08:44:04.229Z,1005.82
2018-09-22T08:45:04.257Z,1005.87
2018-09-22T08:46:04.267Z,1005.92
2018-09-22T08:47:04.290Z,1005.91
2018-09-22T08:48:04.308Z,1005.91
2018-09-22T08:49:04.333Z,1005.94
2018-09-22T08:50:04.417Z,1005.99
2018-09-22T08:51:04.409Z,1005.89
2018-09-22T08:52:04.387Z,1006.00
2018-09-22T08:53:04.410Z,1005.99
2018-09-22T08:54:04.428Z,1006.08
2018-09-22T08:55:04.450Z,1005.96
2018-09-22T08:56:04.478Z,1005.85
2018-09-22T08:57:04.506Z,1005.92
2018-09-22T08:58:04.505Z,1005.97
2018-09-22T08:59:04.537Z,1006.01
2018-09-22T09:00:04.556Z,1006.06
2018-09-22T09:01:04.579Z,1006.08
2018-09-22T09:02:04.594Z,1006.06
2018-09-22T09:03:04.614Z,1006.08
2018-09-22T09:04:04.628Z,1006.05
2018-09-22T09:05:04.674Z,1005.98
2018-09-22T09:06:04.667Z,1005.85
2018-09-22T09:07:04.692Z,1005.64
2018-09-22T09:08:04.713Z,1005.78
2018-09-22T09:09:04.728Z,1005.82
2018-09-22T09:10:04.754Z,1005.92
2018-09-22T09:11:04.776Z,1005.93
2018-09-22T09:12:04.788Z,1005.88
2018-09-22T09:13:04.853Z,1005.73
2018-09-22T09:14:04.897Z,1005.82
2018-09-22T09:15:04.920Z,1005.72
2018-09-22T09:16:04.870Z,1005.74
2018-09-22T09:17:04.899Z,1005.82
2018-09-22T09:18:04.913Z,1005.87
2018-09-22T09:19:04.941Z,1005.86
2018-09-22T09:20:04.955Z,1005.86
2018-09-22T09:21:04.975Z,1005.86
2018-09-22T09:22:04.997Z,1005.89
2018-09-22T09:23:05.013Z,1005.85
2018-09-22T09:24:05.052Z,1005.90
2018-09-22T09:25:05.062Z,1005.85
2018-09-22T09:26:05.088Z,1005.88
2018-09-22T09:27:05.097Z,1005.77
2018-09-22T09:28:05.164Z,1005.78
2018-09-22T09:29:05.145Z,1005.81
2018-09-22T09:30:05.164Z,1005.86
2018-09-22T09:31:05.185Z,1005.80
2018-09-22T09:32:05.208Z,1005.62
2018-09-22T09:33:05.221Z,1005.64
2018-09-22T09:34:05.242Z,1005.70
2018-09-22T09:35:05.262Z,1005.71
2018-09-22T09:36:05.281Z,1005.78
2018-09-22T09:37:05.304Z,1005.91
2018-09-22T09:38:05.335Z,1005.83
2018-09-22T09:39:05.354Z,1005.68
2018-09-22T09:40:05.365Z,1005.51
2018-09-22T09:41:05.392Z,1005.31
2018-09-22T09:42:05.408Z,1005.22
2018-09-22T09:43:05.426Z,1005.12
2018-09-22T09:44:05.452Z,1005.11
2018-09-22T09:45:05.468Z,1005.08
2018-09-22T09:46:05.484Z,1005.12
2018-09-22T09:47:05.512Z,1005.09
2018-09-22T09:48:05.531Z,1005.03
2018-09-22T09:49:05.551Z,1005.03
2018-09-22T09:50:05.571Z,1005.08
2018-09-22T09:51:05.588Z,1005.00
2018-09-22T09:52:05.612Z,1005.01
2018-09-22T09:53:05.631Z,1005.05
2018-09-22T09:54:05.651Z,1005.02
2018-09-22T09:55:05.671Z,1005.14
2018-09-22T09:56:05.694Z,1005.15
2018-09-22T09:57:05.715Z,1005.11
2018-09-22T09:58:05.738Z,1005.05
2018-09-22T09:59:05.754Z,1005.09
2018-09-22T10:00:05.770Z,1005.14
2018-09-22T10:01:05.795Z,1005.17
2018-09-22T10:02:05.816Z,1005.31
2018-09-22T10:03:05.837Z,1005.46
2018-09-22T10:04:05.857Z,1005.32
2018-09-22T10:05:05.870Z,1005.26
2018-09-22T10:06:05.893Z,1005.20
2018-09-22T10:07:05.914Z,1005.18
2018-09-22T10:08:05.936Z,1005.07
2018-09-22T10:09:05.955Z,1005.03
2018-09-22T10:10:05.985Z,1005.04
2018-09-22T10:11:06.008Z,1005.08
2018-09-22T10:12:06.014Z,1005.13
2018-09-22T10:13:06.039Z,1005.24
2018-09-22T10:14:06.057Z,1005.28
2018-09-22T10:15:06.079Z,1005.28
2018-09-22T10:16:06.113Z,1005.32
2018-09-22T10:17:06.113Z,1005.31
2018-09-22T10:18:06.136Z,1005.23
2018-09-22T10:19:06.155Z,1005.09
2018-09-22T10:20:06.206Z,1005.06
2018-09-22T10:21:06.198Z,1005.07
2018-09-22T10:22:06.216Z,1004.96
2018-09-22T10:23:06.233Z,1004.96
2018-09-22T10:24:06.258Z,1004.90
2018-09-22T10:25:06.272Z,1005.00
2018-09-22T10:26:06.305Z,1005.06
2018-09-22T10:27:06.318Z,1005.04
2018-09-22T10:28:06.370Z,1004.99
2018-09-22T10:29:06.356Z,1004.89
2018-09-22T10:30:06.381Z,1004.88
2018-09-22T10:31:06.399Z,1004.96
2018-09-22T10:32:06.414Z,1004.98
2018-09-22T10:33:06.441Z,1005.02
2018-09-22T10:34:06.461Z,1005.00
2018-09-22T10:35:06.482Z,1005.10
2018-09-22T10:36:06.496Z,1005.14
2018-09-22T10:37:06.522Z,1005.11
2018-09-22T10:38:06.544Z,1005.08
2018-09-22T10:39:06.563Z,1005.10
2018-09-22T10:40:06.579Z,1005.03
2018-09-22T10:41:06.604Z,1005.05
2018-09-22T10:42:06.656Z,1004.91
2018-09-22T10:43:06.640Z,1004.91
2018-09-22T10:44:06.657Z,1004.83
2018-09-22T10:45:06.688Z,1004.81
2018-09-22T10:46:06.698Z,1004.73
2018-09-22T10:47:06.732Z,1004.78
2018-09-22T10:48:06.737Z,1004.82
2018-09-22T10:49:06.771Z,1004.81
2018-09-22T10:50:06.791Z,1004.84
2018-09-22T10:51:06.797Z,1004.86
2018-09-22T10:52:06.824Z,1004.92
2018-09-22T10:53:06.874Z,1004.97
2018-09-22T10:54:06.862Z,1004.99
2018-09-22T10:55:06.893Z,1004.96
2018-09-22T10:56:06.899Z,1004.95
2018-09-22T10:57:06.923Z,1004.88
2018-09-22T10:58:06.937Z,1004.92
2018-09-22T10:59:06.969Z,1004.99
2018-09-22T11:00:06.979Z,1005.09
2018-09-22T11:01:07.006Z,1005.06
2018-09-22T11:02:07.018Z,1005.14
2018-09-22T11:03:07.040Z,1005.18
2018-09-22T11:04:07.059Z,1004.94
2018-09-22T11:05:07.081Z,1005.10
2018-09-22T11:06:07.101Z,1005.12
2018-09-22T11:07:07.119Z,1005.12
2018-09-22T11:08:07.139Z,1005.10
2018-09-22T11:09:07.162Z,1005.01
2018-09-22T11:10:07.191Z,1005.00
2018-09-22T11:11:07.204Z,1005.10
2018-09-22T11:12:07.223Z,1005.21
2018-09-22T11:13:07.248Z,1005.30
2018-09-22T11:14:07.266Z,1005.40
2018-09-22T11:15:07.288Z,1005.37
2018-09-22T11:16:07.308Z,1005.34
2018-09-22T11:17:07.324Z,1005.35
2018-09-22T11:18:07.346Z,1005.37
2018-09-22T11:19:07.366Z,1005.23
2018-09-22T11:20:07.387Z,1005.40
2018-09-22T11:21:07.406Z,1005.34
2018-09-22T11:22:07.428Z,1005.36
2018-09-22T11:23:07.454Z,1005.34
2018-09-22T11:24:07.469Z,1005.30
2018-09-22T11:25:07.491Z,1005.20
2018-09-22T11:26:07.521Z,1005.13
2018-09-22T11:27:07.535Z,1005.07
2018-09-22T11:28:07.555Z,1005.00
2018-09-22T11:29:07.578Z,1005.00
2018-09-22T11:30:07.592Z,1004.91
2018-09-22T11:31:07.614Z,1004.93
2018-09-22T11:32:07.636Z,1004.87
2018-09-22T11:33:07.653Z,1004.98
2018-09-22T11:34:07.682Z,1005.01
2018-09-22T11:35:07.694Z,1004.98
2018-09-22T11:36:07.735Z,1004.91
2018-09-22T11:37:07.736Z,1004.88
2018-09-22T11:38:07.774Z,1004.87
2018-09-22T11:39:07.774Z,1004.85
2018-09-22T11:40:07.806Z,1004.76
2018-09-22T11:41:07.819Z,1004.71
2018-09-22T11:42:07.845Z,1004.65
2018-09-22T11:43:07.868Z,1004.75
2018-09-22T11:44:07.883Z,1004.74
2018-09-22T11:45:07.919Z,1004.77
2018-09-22T11:46:07.939Z,1004.71
2018-09-22T11:47:07.940Z,1004.71
2018-09-22T11:48:07.963Z,1004.68
2018-09-22T11:49:07.980Z,1004.66
2018-09-22T11:50:08.003Z,1004.62
2018-09-22T11:51:08.059Z,1004.63
2018-09-22T11:52:08.047Z,1004.61
2018-09-22T11:53:08.079Z,1004.68
2018-09-22T11:54:08.083Z,1004.68
2018-09-22T11:55:08.140Z,1004.70
2018-09-22T11:56:08.125Z,1004.61
2018-09-22T11:57:08.139Z,1004.68
2018-09-22T11:58:08.168Z,1004.79
2018-09-22T11:59:08.189Z,1004.82
2018-09-22T12:00:08.208Z,1004.91
2018-09-22T12:01:08.227Z,1004.96
2018-09-22T12:02:08.249Z,1004.95
2018-09-22T12:03:08.264Z,1004.97
2018-09-22T12:04:08.287Z,1004.91
2018-09-22T12:05:08.310Z,1004.86
2018-09-22T12:06:08.365Z,1004.81